createdAt,value
2022-10-01T00:02:02.949Z,3.50
2022-10-01T00:04:30.122Z,3.05
2022-10-01T00:07:03.364Z,3.95
2022-10-01T00:09:31.846Z,3.20
2022-10-01T00:12:00.024Z,3.42
2022-10-01T00:14:27.898Z,3.03
2022-10-01T00:16:55.321Z,3.75
2022-10-01T00:19:23.091Z,3.05
2022-10-01T00:21:50.329Z,3.63
2022-10-01T00:24:17.481Z,3.55
2022-10-01T00:26:45.801Z,4.35
2022-10-01T00:29:15.288Z,3.30
2022-10-01T00:31:42.879Z,3.05
2022-10-01T00:34:13.328Z,3.15
2022-10-01T00:36:41.238Z,3.92
2022-10-01T00:39:10.974Z,3.47
2022-10-01T00:41:38.761Z,3.27
2022-10-01T00:44:32.782Z,3.58
2022-10-01T00:47:20.175Z,3.97
2022-10-01T00:49:49.120Z,3.00
2022-10-01T00:52:25.014Z,4.40
2022-10-01T00:55:12.341Z,2.97
2022-10-01T00:57:41.108Z,3.58
2022-10-01T01:00:12.467Z,3.50
2022-10-01T01:02:40.360Z,2.67
2022-10-01T01:05:12.310Z,3.33
2022-10-01T01:07:45.025Z,3.75
2022-10-01T01:10:14.667Z,3.70
2022-10-01T01:12:53.237Z,3.40
2022-10-01T01:15:37.417Z,3.67
2022-10-01T01:18:40.544Z,3.42
2022-10-01T01:21:34.408Z,4.05
2022-10-01T01:24:09.581Z,4.43
2022-10-01T01:26:59.491Z,5.15
2022-10-01T01:29:47.985Z,5.53
2022-10-01T01:32:25.035Z,4.00
2022-10-01T01:34:54.484Z,4.47
2022-10-01T01:37:27.766Z,4.78
2022-10-01T01:39:58.921Z,4.70
2022-10-01T01:42:38.244Z,5.78
2022-10-01T01:45:10.336Z,4.85
2022-10-01T01:47:40.053Z,4.60
2022-10-01T01:50:11.122Z,5.50
2022-10-01T01:52:38.646Z,5.93
2022-10-01T01:55:07.796Z,4.32
2022-10-01T01:57:40.691Z,6.25
2022-10-01T02:00:09.987Z,5.25
2022-10-01T02:02:39.590Z,5.57
2022-10-01T02:05:14.344Z,5.18
2022-10-01T02:08:12.844Z,6.50
2022-10-01T02:11:03.442Z,5.22
2022-10-01T02:13:56.358Z,6.18
2022-10-01T02:16:42.452Z,5.28
2022-10-01T02:19:48.291Z,5.40
2022-10-01T02:22:27.004Z,7.25
2022-10-01T02:25:00.475Z,6.43
2022-10-01T02:27:33.598Z,6.20
2022-10-01T02:30:08.140Z,5.60
2022-10-01T02:32:37.933Z,6.28
2022-10-01T02:35:07.786Z,7.38
2022-10-01T02:37:37.968Z,5.95
2022-10-01T02:40:08.509Z,5.78
2022-10-01T02:45:05.063Z,5.85
2022-10-01T02:47:44.794Z,5.75
2022-10-01T02:50:13.208Z,6.77
2022-10-01T02:52:49.886Z,5.72
2022-10-01T02:55:19.386Z,5.35
2022-10-01T02:57:47.171Z,5.10
2022-10-01T03:00:17.143Z,5.05
2022-10-01T03:02:44.429Z,6.60
2022-10-01T03:05:11.782Z,5.63
2022-10-01T03:07:40.316Z,7.18
2022-10-01T03:10:08.886Z,7.88
2022-10-01T03:12:36.570Z,6.07
2022-10-01T03:15:04.779Z,7.50
2022-10-01T03:17:31.951Z,6.22
2022-10-01T03:19:59.238Z,7.03
2022-10-01T03:22:26.410Z,8.80
2022-10-01T03:24:54.257Z,6.20
2022-10-01T03:27:22.370Z,6.80
2022-10-01T03:29:49.807Z,7.72
2022-10-01T03:32:17.747Z,5.65
2022-10-01T03:34:45.424Z,6.30
2022-10-01T03:37:12.688Z,6.57
2022-10-01T03:39:40.122Z,5.93
2022-10-01T03:42:07.424Z,6.03
2022-10-01T03:44:34.837Z,6.70
2022-10-01T03:47:02.110Z,6.88
2022-10-01T03:49:29.479Z,6.22
2022-10-01T03:51:57.185Z,6.53
2022-10-01T03:54:25.738Z,6.65
2022-10-01T03:56:53.009Z,7.30
2022-10-01T03:59:20.530Z,7.35
2022-10-01T04:01:48.425Z,7.68
2022-10-01T04:04:15.779Z,7.90
2022-10-01T04:06:43.148Z,7.78
2022-10-01T04:09:10.385Z,5.70
2022-10-01T04:11:38.137Z,5.95
2022-10-01T04:14:05.972Z,7.43
2022-10-01T04:16:35.051Z,6.75
2022-10-01T04:19:04.016Z,7.32
2022-10-01T04:21:31.446Z,6.53
2022-10-01T04:23:59.973Z,7.55
2022-10-01T04:26:27.431Z,71.25
2022-10-01T04:28:54.559Z,64.88
2022-10-01T04:31:24.788Z,36.40
2022-10-01T04:33:56.841Z,19.25
2022-10-01T04:36:25.678Z,11.70
2022-10-01T04:39:01.713Z,8.23
2022-10-01T04:41:31.420Z,8.02
2022-10-01T04:44:00.253Z,7.63
2022-10-01T04:46:31.497Z,6.90
2022-10-01T04:48:58.892Z,6.32
2022-10-01T04:51:26.170Z,5.90
2022-10-01T04:53:53.571Z,6.18
2022-10-01T04:56:20.825Z,5.78
2022-10-01T04:58:48.762Z,6.20
2022-10-01T05:01:16.042Z,6.10
2022-10-01T05:03:43.278Z,5.55
2022-10-01T05:06:10.554Z,5.63
2022-10-01T05:08:38.498Z,6.65
2022-10-01T05:11:05.823Z,7.25
2022-10-01T05:13:33.005Z,7.03
2022-10-01T05:16:01.276Z,6.25
2022-10-01T05:18:28.471Z,7.20
2022-10-01T05:20:55.508Z,5.95
2022-10-01T05:23:22.700Z,6.90
2022-10-01T05:25:49.850Z,6.18
2022-10-01T05:28:21.946Z,6.22
2022-10-01T05:30:49.575Z,5.50
2022-10-01T05:33:16.774Z,6.18
2022-10-01T05:35:44.761Z,6.38
2022-10-01T05:38:12.171Z,5.13
2022-10-01T05:40:39.244Z,4.38
2022-10-01T05:43:06.384Z,5.25
2022-10-01T05:45:33.620Z,5.43
2022-10-01T05:48:03.751Z,4.25
2022-10-01T05:50:33.948Z,5.60
2022-10-01T05:53:02.253Z,5.20
2022-10-01T05:55:34.972Z,5.53
2022-10-01T05:58:04.734Z,4.38
2022-10-01T06:00:33.820Z,7.10
2022-10-01T06:03:02.764Z,6.30
2022-10-01T06:05:31.722Z,38.20
2022-10-01T06:07:59.613Z,11.48
2022-10-01T06:10:30.425Z,6.18
2022-10-01T06:13:02.163Z,4.93
2022-10-01T06:15:30.287Z,4.82
2022-10-01T06:18:01.543Z,4.68
2022-10-01T06:20:28.760Z,4.82
2022-10-01T06:22:57.807Z,5.40
2022-10-01T06:25:26.094Z,4.63
2022-10-01T06:27:58.427Z,6.43
2022-10-01T06:30:32.027Z,8.63
2022-10-01T06:33:05.822Z,7.65
2022-10-01T06:35:34.429Z,6.18
2022-10-01T06:38:06.273Z,7.15
2022-10-01T06:40:33.555Z,10.02
2022-10-01T06:43:00.934Z,7.47
2022-10-01T06:45:29.632Z,5.93
2022-10-01T06:48:04.107Z,8.05
2022-10-01T06:50:32.807Z,5.55
2022-10-01T06:53:02.234Z,6.43
2022-10-01T06:55:31.763Z,4.47
2022-10-01T06:58:01.966Z,5.15
2022-10-01T07:00:31.801Z,5.90
2022-10-01T07:03:00.996Z,6.18
2022-10-01T07:05:28.502Z,5.35
2022-10-01T07:07:55.664Z,5.13
2022-10-01T07:10:23.551Z,6.72
2022-10-01T07:12:51.272Z,7.88
2022-10-01T07:15:20.420Z,5.95
2022-10-01T07:17:50.010Z,9.63
2022-10-01T07:20:19.050Z,4.85
2022-10-01T07:22:47.598Z,6.13
2022-10-01T07:25:15.149Z,5.20
2022-10-01T07:27:42.318Z,5.93
2022-10-01T07:30:10.202Z,7.20
2022-10-01T07:32:37.452Z,6.30
2022-10-01T07:35:06.182Z,28.10
2022-10-01T07:37:33.541Z,10.80
2022-10-01T07:40:04.246Z,7.47
2022-10-01T07:42:35.547Z,6.22
2022-10-01T07:45:04.611Z,6.80
2022-10-01T07:47:31.949Z,6.43
2022-10-01T07:49:59.095Z,8.40
2022-10-01T07:52:26.198Z,6.03
2022-10-01T07:54:53.859Z,5.63
2022-10-01T07:57:21.020Z,5.85
2022-10-01T07:59:51.208Z,6.47
2022-10-01T08:02:20.827Z,9.93
2022-10-01T08:05:06.608Z,8.00
2022-10-01T08:07:34.033Z,7.20
2022-10-01T08:10:02.309Z,7.25
2022-10-01T08:12:30.587Z,6.35
2022-10-01T08:14:57.827Z,5.82
2022-10-01T08:17:29.207Z,6.93
2022-10-01T08:19:56.777Z,7.63
2022-10-01T08:22:23.977Z,9.50
2022-10-01T08:24:51.208Z,11.18
2022-10-01T08:27:18.440Z,8.07
2022-10-01T08:29:45.589Z,7.53
2022-10-01T08:32:12.697Z,8.30
2022-10-01T08:34:39.824Z,7.10
2022-10-01T08:37:06.913Z,7.53
2022-10-01T08:39:34.274Z,7.05
2022-10-01T08:42:22.233Z,6.43
2022-10-01T08:44:52.301Z,6.43
2022-10-01T08:47:31.602Z,8.90
2022-10-01T08:50:05.861Z,5.80
2022-10-01T08:52:40.421Z,6.90
2022-10-01T08:55:14.543Z,6.80
2022-10-01T08:57:52.231Z,6.70
2022-10-01T09:00:21.294Z,6.63
2022-10-01T09:02:49.571Z,6.57
2022-10-01T09:05:51.410Z,6.22
2022-10-01T09:08:50.893Z,7.35
2022-10-01T09:11:55.213Z,8.77
2022-10-01T09:14:57.951Z,8.55
2022-10-01T09:17:42.409Z,5.93
2022-10-01T09:20:20.259Z,7.38
2022-10-01T09:23:15.517Z,7.35
2022-10-01T09:25:46.035Z,6.60
2022-10-01T09:28:19.222Z,7.65
2022-10-01T09:30:57.639Z,7.68
2022-10-01T09:33:32.392Z,6.95
2022-10-01T09:36:26.439Z,7.10
2022-10-01T09:39:09.284Z,8.50
2022-10-01T09:41:36.747Z,9.00
2022-10-01T09:44:04.292Z,8.88
2022-10-01T09:46:31.774Z,7.05
2022-10-01T09:49:05.601Z,9.52
2022-10-01T09:51:50.082Z,10.20
2022-10-01T09:54:32.856Z,8.02
2022-10-01T09:57:14.262Z,11.15
2022-10-01T10:00:06.471Z,10.05
2022-10-01T10:02:47.558Z,9.90
2022-10-01T10:05:23.088Z,8.35
2022-10-01T10:07:54.332Z,9.52
2022-10-01T10:10:37.140Z,8.23
2022-10-01T10:13:10.943Z,10.68
2022-10-01T10:15:51.474Z,8.65
2022-10-01T10:20:54.272Z,7.38
2022-10-01T10:23:26.308Z,8.02
2022-10-01T10:26:02.952Z,7.38
2022-10-01T10:28:43.851Z,7.50
2022-10-01T10:31:20.569Z,9.07
2022-10-01T10:34:13.818Z,6.90
2022-10-01T10:36:42.920Z,8.25
2022-10-01T10:39:22.978Z,7.65
2022-10-01T10:41:53.370Z,7.68
2022-10-01T10:44:24.463Z,7.22
2022-10-01T10:46:54.114Z,7.22
2022-10-01T10:49:32.902Z,8.03
2022-10-01T10:52:01.988Z,7.05
2022-10-01T10:54:35.576Z,7.03
2022-10-01T10:57:21.445Z,7.60
2022-10-01T11:00:09.720Z,7.00
2022-10-01T11:02:39.782Z,7.47
2022-10-01T11:05:29.768Z,8.35
2022-10-01T11:08:00.553Z,7.43
2022-10-01T11:11:12.738Z,7.97
2022-10-01T11:13:59.394Z,7.75
2022-10-01T11:16:50.472Z,7.30
2022-10-01T11:19:42.228Z,7.22
2022-10-01T11:22:30.092Z,6.38
2022-10-01T11:25:05.824Z,6.80
2022-10-01T11:27:38.698Z,6.95
2022-10-01T11:30:09.859Z,6.07
2022-10-01T11:33:03.745Z,5.70
2022-10-01T11:35:55.652Z,7.10
2022-10-01T11:38:40.786Z,5.70
2022-10-01T11:41:39.223Z,5.13
2022-10-01T11:44:18.382Z,4.85
2022-10-01T11:47:05.385Z,4.55
2022-10-01T11:49:55.179Z,4.63
2022-10-01T11:52:38.779Z,4.80
2022-10-01T11:55:34.004Z,2.97
2022-10-01T11:58:31.372Z,2.47
2022-10-01T12:01:22.159Z,2.63
2022-10-01T12:06:40.357Z,3.88
2022-10-01T12:09:37.556Z,4.53
2022-10-01T12:12:12.075Z,5.20
2022-10-01T12:14:52.828Z,4.70
2022-10-01T12:17:20.237Z,4.07
2022-10-01T12:19:53.968Z,3.97
2022-10-01T12:22:27.110Z,3.88
2022-10-01T12:24:54.619Z,3.70
2022-10-01T12:27:48.195Z,4.47
2022-10-01T12:30:20.905Z,4.00
2022-10-01T12:33:21.981Z,4.15
2022-10-01T12:36:12.358Z,4.28
2022-10-01T12:39:10.462Z,4.97
2022-10-01T12:41:57.432Z,3.35
2022-10-01T12:44:38.300Z,4.88
2022-10-01T12:47:44.055Z,4.60
2022-10-01T12:50:48.655Z,4.72
2022-10-01T12:53:37.170Z,4.10
2022-10-01T12:56:33.913Z,4.60
2022-10-01T12:59:46.161Z,4.65
2022-10-01T13:02:35.254Z,3.72
2022-10-01T13:05:20.388Z,3.85
2022-10-01T13:08:13.475Z,3.90
2022-10-01T13:10:51.038Z,4.03
2022-10-01T13:13:27.396Z,3.45
2022-10-01T13:16:24.743Z,4.35
2022-10-01T13:19:14.684Z,3.05
2022-10-01T13:21:50.840Z,3.95
2022-10-01T13:24:27.544Z,2.90
2022-10-01T13:27:05.047Z,3.90
2022-10-01T13:29:49.162Z,5.93
2022-10-01T13:32:46.991Z,4.82
2022-10-01T13:35:40.444Z,4.82
2022-10-01T13:38:29.525Z,3.95
2022-10-01T13:41:16.812Z,4.80
2022-10-01T13:44:02.663Z,4.10
2022-10-01T13:46:33.245Z,4.13
2022-10-01T13:49:07.756Z,4.50
2022-10-01T13:51:39.975Z,4.68
2022-10-01T13:54:18.788Z,4.53
2022-10-01T13:56:46.097Z,4.38
2022-10-01T13:59:39.678Z,5.40
2022-10-01T14:02:30.781Z,5.40
2022-10-01T14:05:23.290Z,4.13
2022-10-01T14:07:56.879Z,4.55
2022-10-01T14:10:32.251Z,4.10
2022-10-01T14:13:21.610Z,4.82
2022-10-01T14:16:02.200Z,4.97
2022-10-01T14:18:38.604Z,3.75
2022-10-01T14:21:25.970Z,4.47
2022-10-01T14:24:29.641Z,4.18
2022-10-01T14:27:35.387Z,3.55
2022-10-01T14:30:14.817Z,3.25
2022-10-01T14:33:06.284Z,4.72
2022-10-01T14:36:00.827Z,4.38
2022-10-01T14:38:28.999Z,4.18
2022-10-01T14:40:56.235Z,4.55
2022-10-01T14:43:29.174Z,4.43
2022-10-01T14:46:06.114Z,3.97
2022-10-01T14:48:36.013Z,4.60
2022-10-01T14:51:05.875Z,5.18
2022-10-01T14:53:35.643Z,4.85
2022-10-01T14:56:08.788Z,5.03
2022-10-01T14:59:03.562Z,4.30
2022-10-01T15:01:30.913Z,3.88
2022-10-01T15:03:58.109Z,4.75
2022-10-01T15:06:30.230Z,5.10
2022-10-01T15:09:14.535Z,4.05
2022-10-01T15:11:44.789Z,4.40
2022-10-01T15:14:18.818Z,3.85
2022-10-01T15:16:46.502Z,3.67
2022-10-01T15:19:17.336Z,4.53
2022-10-01T15:21:59.478Z,4.50
2022-10-01T15:24:38.589Z,4.38
2022-10-01T15:27:07.342Z,4.18
2022-10-01T15:29:35.690Z,4.43
2022-10-01T15:32:04.228Z,4.38
2022-10-01T15:34:32.326Z,4.68
2022-10-01T15:37:00.934Z,4.57
2022-10-01T15:39:38.940Z,4.45
2022-10-01T15:42:28.499Z,4.40
2022-10-01T15:45:07.642Z,4.05
2022-10-01T15:47:47.883Z,4.78
2022-10-01T15:50:32.610Z,4.70
2022-10-01T15:53:17.466Z,3.97
2022-10-01T15:55:48.460Z,5.70
2022-10-01T15:58:50.620Z,4.20
2022-10-01T16:01:27.010Z,4.72
2022-10-01T16:04:09.571Z,4.65
2022-10-01T16:06:43.069Z,4.93
2022-10-01T16:09:28.650Z,4.20
2022-10-01T16:12:11.029Z,4.53
2022-10-01T16:14:44.202Z,3.90
2022-10-01T16:17:17.547Z,3.20
2022-10-01T16:19:50.165Z,4.15
2022-10-01T16:22:23.939Z,3.70
2022-10-01T16:25:01.161Z,3.63
2022-10-01T16:27:30.103Z,3.70
2022-10-01T16:30:10.499Z,4.32
2022-10-01T16:32:38.019Z,5.35
2022-10-01T16:35:20.901Z,8.18
2022-10-01T16:37:50.418Z,6.32
2022-10-01T16:40:19.353Z,6.25
2022-10-01T16:42:49.550Z,6.07
2022-10-01T16:45:24.444Z,7.25
2022-10-01T16:47:53.374Z,5.40
2022-10-01T16:50:22.000Z,5.88
2022-10-01T16:52:53.301Z,6.53
2022-10-01T16:55:23.332Z,6.00
2022-10-01T16:57:51.163Z,4.95
2022-10-01T17:00:20.437Z,4.68
2022-10-01T17:02:47.707Z,5.40
2022-10-01T17:05:29.660Z,5.18
2022-10-01T17:08:13.080Z,6.38
2022-10-01T17:10:47.760Z,4.95
2022-10-01T17:13:16.006Z,5.43
2022-10-01T17:15:43.718Z,4.53
2022-10-01T17:18:10.951Z,5.32
2022-10-01T17:20:41.146Z,5.15
2022-10-01T17:23:11.720Z,5.47
2022-10-01T17:28:11.733Z,3.92
2022-10-01T17:30:49.408Z,5.07
2022-10-01T17:33:19.622Z,3.97
2022-10-01T17:35:54.954Z,3.88
2022-10-01T17:38:23.425Z,3.85
2022-10-01T17:40:56.407Z,3.42
2022-10-01T17:43:23.981Z,5.13
2022-10-01T17:45:57.018Z,4.53
2022-10-01T17:48:25.651Z,4.53
2022-10-01T17:51:01.200Z,5.47
2022-10-01T17:53:34.951Z,4.40
2022-10-01T17:56:33.065Z,4.45
2022-10-01T17:59:00.521Z,3.60
2022-10-01T18:01:28.081Z,4.70
2022-10-01T18:03:56.161Z,3.85
2022-10-01T18:06:25.719Z,3.45
2022-10-01T18:08:56.262Z,2.72
2022-10-01T18:11:26.812Z,3.63
2022-10-01T18:13:54.101Z,4.20
2022-10-01T18:16:21.618Z,3.00
2022-10-01T18:21:42.882Z,3.75
2022-10-01T18:24:10.101Z,3.53
2022-10-01T18:26:37.637Z,4.30
2022-10-01T18:29:05.558Z,3.80
2022-10-01T18:31:40.007Z,3.72
2022-10-01T18:34:18.529Z,3.65
2022-10-01T18:36:55.012Z,4.15
2022-10-01T18:39:43.029Z,3.45
2022-10-01T18:42:49.939Z,3.20
2022-10-01T18:45:23.802Z,3.38
2022-10-01T18:48:07.039Z,3.20
2022-10-01T18:51:21.718Z,4.00
2022-10-01T18:54:09.712Z,2.35
2022-10-01T18:56:40.910Z,3.50
2022-10-01T18:59:59.249Z,3.97
2022-10-01T19:03:04.289Z,4.80
2022-10-01T19:05:52.849Z,3.63
2022-10-01T19:08:49.818Z,4.57
2022-10-01T19:11:41.558Z,4.05
2022-10-01T19:14:39.699Z,3.25
2022-10-01T19:17:34.766Z,3.13
2022-10-01T19:20:33.969Z,3.60
2022-10-01T19:23:12.832Z,4.63
2022-10-01T19:25:43.448Z,3.92
2022-10-01T19:31:09.975Z,3.15
2022-10-01T19:33:50.682Z,4.60
2022-10-01T19:36:34.543Z,3.78
2022-10-01T19:39:06.776Z,3.80
2022-10-01T19:41:36.459Z,3.83
2022-10-01T19:44:13.439Z,3.43
2022-10-01T19:46:46.632Z,3.20
2022-10-01T19:49:21.486Z,5.40
2022-10-01T19:52:18.720Z,3.90
2022-10-01T19:55:00.908Z,2.85
2022-10-01T19:57:39.283Z,3.58
2022-10-01T20:00:17.763Z,3.60
2022-10-01T20:02:50.858Z,4.07
2022-10-01T20:05:34.537Z,3.30
2022-10-01T20:08:25.181Z,3.60
2022-10-01T20:13:50.051Z,2.70
2022-10-01T20:16:27.243Z,3.40
2022-10-01T20:18:58.428Z,3.67
2022-10-01T20:22:03.319Z,4.72
2022-10-01T20:24:56.807Z,3.78
2022-10-01T20:27:47.090Z,3.67
2022-10-01T20:30:20.381Z,3.10
2022-10-01T20:33:13.568Z,2.30
2022-10-01T20:36:00.278Z,2.65
2022-10-01T20:39:04.482Z,2.95
2022-10-01T20:41:46.052Z,3.97
2022-10-01T20:44:38.284Z,3.45
2022-10-01T20:47:29.651Z,2.97
2022-10-01T20:50:09.372Z,2.97
2022-10-01T20:52:56.596Z,2.97
2022-10-01T20:55:33.152Z,3.20
2022-10-01T20:58:09.776Z,2.38
2022-10-01T21:00:39.310Z,2.88
2022-10-01T21:03:22.546Z,3.22
2022-10-01T21:05:58.712Z,2.28
2022-10-01T21:08:47.738Z,2.13
2022-10-01T21:11:30.861Z,2.67
2022-10-01T21:14:35.829Z,3.50
2022-10-01T21:17:34.277Z,2.13
2022-10-01T21:20:31.359Z,2.42
2022-10-01T21:23:24.009Z,2.22
2022-10-01T21:26:13.520Z,2.40
2022-10-01T21:28:52.954Z,2.50
2022-10-01T21:31:23.336Z,2.70
2022-10-01T21:34:13.040Z,2.25
2022-10-01T21:36:55.318Z,2.00
2022-10-01T21:39:32.537Z,1.85
2022-10-01T21:42:10.941Z,2.78
2022-10-01T21:44:49.889Z,2.33
2022-10-01T21:47:54.540Z,2.40
2022-10-01T21:50:53.999Z,2.42
2022-10-01T21:53:36.100Z,3.05
2022-10-01T21:56:31.838Z,2.47
2022-10-01T21:59:24.670Z,2.30
2022-10-01T22:02:01.847Z,3.03
2022-10-01T22:04:38.491Z,2.28
2022-10-01T22:07:24.267Z,3.15
2022-10-01T22:09:57.191Z,2.25
2022-10-01T22:12:28.942Z,2.50
2022-10-01T22:14:58.887Z,2.40
2022-10-01T22:17:31.572Z,3.03
2022-10-01T22:20:02.632Z,3.13
2022-10-01T22:22:33.983Z,2.72
2022-10-01T22:25:02.402Z,2.75
2022-10-01T22:27:51.365Z,1.83
2022-10-01T22:30:21.640Z,2.28
2022-10-01T22:33:17.326Z,2.00
2022-10-01T22:35:49.445Z,1.77
2022-10-01T22:38:36.642Z,2.95
2022-10-01T22:41:17.569Z,2.78
2022-10-01T22:43:45.921Z,2.58
2022-10-01T22:46:49.810Z,3.22
2022-10-01T22:49:45.550Z,3.50
2022-10-01T22:52:28.380Z,1.80
2022-10-01T22:55:14.032Z,3.25
2022-10-01T22:57:57.689Z,2.67
2022-10-01T23:00:26.327Z,2.42
2022-10-01T23:03:17.778Z,2.63
2022-10-01T23:05:52.645Z,1.90
2022-10-01T23:08:42.137Z,2.60
2022-10-01T23:11:43.113Z,2.85
2022-10-01T23:14:25.625Z,3.03
2022-10-01T23:17:14.539Z,2.72
2022-10-01T23:19:59.981Z,3.33
2022-10-01T23:22:45.410Z,2.80
2022-10-01T23:25:39.115Z,2.10
2022-10-01T23:28:40.779Z,2.28
2022-10-01T23:31:20.914Z,3.30
2022-10-01T23:34:10.368Z,2.03
2022-10-01T23:36:43.801Z,2.92
2022-10-01T23:39:48.525Z,2.85
2022-10-01T23:42:45.933Z,3.60
2022-10-01T23:45:23.332Z,3.60
2022-10-01T23:48:14.192Z,5.18
2022-10-01T23:51:12.989Z,3.72
2022-10-01T23:54:17.228Z,5.80
2022-10-01T23:56:53.107Z,2.88
2022-10-01T23:59:31.645Z,3.53
